Patterson, Virginia
Current Conditions -  °F | °C
As of 8:55 PM on Saturday 25 Oct 2014 (Local Time) from KJFZ Reporting Station
Broken Clouds Broken Clouds  
Wind Chill: 62°   Ceiling: 2500
Heat Index: 62°   Visibility: 10mi
Dew Point: 35°   Wind: 8mph
Humidity: 37%   Direction: 240°WSW
Pressure: 30.01"   Gusts: 16mph
Location:  37.2148°N, 81.9825°W
Report Text: KJFZ 260055Z AUTO 24007G14KT 10SM BKN025 16/02 A3001 RMK AO2 T01640015
Loading
Personal Weather Stations






























Interactive Weather Map
Tropical Storm Tracking
New forecast layout! Learn more

10-Day Weather Forecast

Advertisements
Track Severe Weather on mobile